createdAt,value
2018-12-30T00:00:32.105Z,1013.17
2018-12-30T00:01:32.173Z,1013.11
2018-12-30T00:02:32.153Z,1013.09
2018-12-30T00:03:32.180Z,1013.10
2018-12-30T00:04:32.203Z,1013.05
2018-12-30T00:05:32.228Z,1012.97
2018-12-30T00:06:32.256Z,1012.97
2018-12-30T00:07:32.278Z,1013.03
2018-12-30T00:08:32.307Z,1013.25
2018-12-30T00:09:32.329Z,1013.16
2018-12-30T00:10:32.353Z,1013.15
2018-12-30T00:11:32.399Z,1013.21
2018-12-30T00:12:32.402Z,1013.12
2018-12-30T00:13:32.428Z,1013.08
2018-12-30T00:14:32.452Z,1013.14
2018-12-30T00:15:32.477Z,1013.16
2018-12-30T00:16:32.501Z,1013.11
2018-12-30T00:17:32.526Z,1013.07
2018-12-30T00:18:32.551Z,1013.12
2018-12-30T00:19:42.278Z,1013.15
2018-12-30T00:20:32.601Z,1013.23
2018-12-30T00:21:32.627Z,1013.26
2018-12-30T00:22:32.649Z,1013.29
2018-12-30T00:23:32.675Z,1013.29
2018-12-30T00:24:32.700Z,1013.22
2018-12-30T00:25:32.724Z,1013.11
2018-12-30T00:26:32.749Z,1013.08
2018-12-30T00:27:32.819Z,1013.06
2018-12-30T00:28:32.798Z,1013.12
2018-12-30T00:29:32.823Z,1013.04
2018-12-30T00:30:32.848Z,1013.06
2018-12-30T00:31:32.875Z,1013.13
2018-12-30T00:32:32.898Z,1013.17
2018-12-30T00:33:32.924Z,1013.11
2018-12-30T00:34:32.947Z,1013.16
2018-12-30T00:35:32.973Z,1013.16
2018-12-30T00:36:32.997Z,1013.22
2018-12-30T00:37:33.023Z,1013.18
2018-12-30T00:38:33.047Z,1013.14
2018-12-30T00:39:33.073Z,1013.12
2018-12-30T00:40:33.098Z,1013.09
2018-12-30T00:41:33.122Z,1013.09
2018-12-30T00:42:33.448Z,1013.13
2018-12-30T00:43:33.172Z,1013.19
2018-12-30T00:44:33.197Z,1013.16
2018-12-30T00:45:33.223Z,1013.11
2018-12-30T00:46:33.247Z,1013.14
2018-12-30T00:47:33.273Z,1013.15
2018-12-30T00:48:33.297Z,1013.14
2018-12-30T00:49:33.322Z,1013.18
2018-12-30T00:50:33.347Z,1013.11
2018-12-30T00:51:33.371Z,1013.08
2018-12-30T00:52:33.395Z,1012.96
2018-12-30T00:53:33.421Z,1012.92
2018-12-30T00:54:33.446Z,1012.88
2018-12-30T00:55:33.474Z,1012.89
2018-12-30T00:56:33.495Z,1012.88
2018-12-30T00:57:33.522Z,1012.94
2018-12-30T00:58:33.650Z,1012.96
2018-12-30T00:59:33.572Z,1012.88
2018-12-30T01:00:33.595Z,1012.87
2018-12-30T01:01:33.620Z,1012.89
2018-12-30T01:02:33.645Z,1012.94
2018-12-30T01:03:33.734Z,1012.98
2018-12-30T01:04:33.692Z,1012.94
2018-12-30T01:05:33.717Z,1012.93
2018-12-30T01:06:33.743Z,1012.98
2018-12-30T01:07:33.768Z,1013.06
2018-12-30T01:08:33.797Z,1013.06
2018-12-30T01:09:33.818Z,1012.98
2018-12-30T01:10:33.843Z,1012.99
2018-12-30T01:11:33.871Z,1012.97
2018-12-30T01:12:33.893Z,1012.95
2018-12-30T01:13:33.919Z,1012.94
2018-12-30T01:14:33.943Z,1012.93
2018-12-30T01:15:33.967Z,1012.99
2018-12-30T01:16:33.992Z,1012.93
2018-12-30T01:17:34.021Z,1012.97
2018-12-30T01:18:34.045Z,1013.02
2018-12-30T01:19:34.070Z,1013.08
2018-12-30T01:20:34.091Z,1013.04
2018-12-30T01:21:34.116Z,1013.10
2018-12-30T01:22:34.156Z,1013.12
2018-12-30T01:23:34.166Z,1013.06
2018-12-30T01:24:34.193Z,1013.03
2018-12-30T01:25:34.216Z,1013.12
2018-12-30T01:26:34.244Z,1013.18
2018-12-30T01:27:34.269Z,1013.17
2018-12-30T01:28:34.289Z,1013.15
2018-12-30T01:29:34.315Z,1013.15
2018-12-30T01:30:34.340Z,1013.15
2018-12-30T01:31:34.365Z,1013.20
2018-12-30T01:32:34.390Z,1013.14
2018-12-30T01:33:34.414Z,1013.14
2018-12-30T01:34:34.439Z,1013.15
2018-12-30T01:35:34.464Z,1013.14
2018-12-30T01:36:34.489Z,1013.12
2018-12-30T01:37:34.561Z,1013.17
2018-12-30T01:38:34.540Z,1013.23
2018-12-30T01:39:34.565Z,1013.22
2018-12-30T01:40:34.590Z,1013.23
2018-12-30T01:41:34.614Z,1013.18
2018-12-30T01:42:34.640Z,1013.15
2018-12-30T01:43:34.664Z,1013.16
2018-12-30T01:44:34.689Z,1013.21
2018-12-30T01:45:34.714Z,1013.16
2018-12-30T01:46:34.742Z,1013.21
2018-12-30T01:47:34.765Z,1013.22
2018-12-30T01:48:34.789Z,1013.17
2018-12-30T01:49:34.814Z,1013.24
2018-12-30T01:50:34.839Z,1013.24
2018-12-30T01:51:34.865Z,1013.28
2018-12-30T01:52:34.890Z,1013.24
2018-12-30T01:53:34.915Z,1013.24
2018-12-30T01:54:34.941Z,1013.28
2018-12-30T01:55:34.965Z,1013.27
2018-12-30T01:56:34.990Z,1013.22
2018-12-30T01:57:35.014Z,1013.19
2018-12-30T01:58:35.041Z,1013.22
2018-12-30T01:59:35.065Z,1013.26
2018-12-30T02:00:35.089Z,1013.24
2018-12-30T02:01:35.115Z,1013.26
2018-12-30T02:02:35.141Z,1013.33
2018-12-30T02:03:35.165Z,1013.36
2018-12-30T02:04:35.190Z,1013.34
2018-12-30T02:05:35.215Z,1013.38
2018-12-30T02:06:35.241Z,1013.47
2018-12-30T02:07:35.267Z,1013.42
2018-12-30T02:08:35.291Z,1013.42
2018-12-30T02:09:35.319Z,1013.47
2018-12-30T02:10:35.391Z,1013.46
2018-12-30T02:11:35.366Z,1013.44
2018-12-30T02:12:35.392Z,1013.47
2018-12-30T02:13:35.416Z,1013.44
2018-12-30T02:14:35.441Z,1013.45
2018-12-30T02:15:35.466Z,1013.47
2018-12-30T02:16:35.490Z,1013.46
2018-12-30T02:17:35.518Z,1013.50
2018-12-30T02:18:35.541Z,1013.45
2018-12-30T02:19:35.569Z,1013.47
2018-12-30T02:20:35.593Z,1013.45
2018-12-30T02:21:41.034Z,1013.45
2018-12-30T02:22:35.643Z,1013.44
2018-12-30T02:23:35.668Z,1013.51
2018-12-30T02:24:35.691Z,1013.46
2018-12-30T02:25:35.716Z,1013.50
2018-12-30T02:26:35.742Z,1013.45
2018-12-30T02:27:35.769Z,1013.47
2018-12-30T02:28:35.794Z,1013.44
2018-12-30T02:29:35.820Z,1013.45
2018-12-30T02:30:35.844Z,1013.41
2018-12-30T02:31:35.867Z,1013.38
2018-12-30T02:32:35.893Z,1013.40
2018-12-30T02:33:35.918Z,1013.46
2018-12-30T02:34:35.943Z,1013.48
2018-12-30T02:35:35.968Z,1013.53
2018-12-30T02:36:36.002Z,1013.51
2018-12-30T02:37:36.020Z,1013.52
2018-12-30T02:38:36.045Z,1013.52
2018-12-30T02:39:36.071Z,1013.53
2018-12-30T02:40:36.093Z,1013.56
2018-12-30T02:41:36.120Z,1013.55
2018-12-30T02:42:36.145Z,1013.57
2018-12-30T02:43:36.169Z,1013.57
2018-12-30T02:44:36.197Z,1013.55
2018-12-30T02:45:36.222Z,1013.53
2018-12-30T02:46:36.245Z,1013.61
2018-12-30T02:47:36.270Z,1013.67
2018-12-30T02:48:36.295Z,1013.63
2018-12-30T02:49:36.321Z,1013.62
2018-12-30T02:50:36.347Z,1013.66
2018-12-30T02:51:36.371Z,1013.65
2018-12-30T02:52:36.397Z,1013.67
2018-12-30T02:53:36.421Z,1013.64
2018-12-30T02:54:36.449Z,1013.61
2018-12-30T02:55:36.473Z,1013.60
2018-12-30T02:56:36.498Z,1013.62
2018-12-30T02:57:36.522Z,1013.60
2018-12-30T02:58:36.548Z,1013.57
2018-12-30T02:59:36.573Z,1013.59
2018-12-30T03:00:36.600Z,1013.55
2018-12-30T03:01:36.623Z,1013.56
2018-12-30T03:02:36.650Z,1013.57
2018-12-30T03:03:36.680Z,1013.58
2018-12-30T03:04:36.700Z,1013.58
2018-12-30T03:05:36.725Z,1013.55
2018-12-30T03:06:36.750Z,1013.55
2018-12-30T03:07:36.776Z,1013.61
2018-12-30T03:08:36.799Z,1013.59
2018-12-30T03:09:36.826Z,1013.63
2018-12-30T03:10:36.853Z,1013.66
2018-12-30T03:11:36.876Z,1013.65
2018-12-30T03:12:36.902Z,1013.72
2018-12-30T03:13:36.927Z,1013.76
2018-12-30T03:14:36.953Z,1013.76
2018-12-30T03:15:36.979Z,1013.74
2018-12-30T03:16:37.002Z,1013.83
2018-12-30T03:17:37.027Z,1013.77
2018-12-30T03:18:37.053Z,1013.76
2018-12-30T03:19:37.081Z,1013.79
2018-12-30T03:20:37.104Z,1013.79
2018-12-30T03:21:37.129Z,1013.81
2018-12-30T03:22:37.164Z,1013.78
2018-12-30T03:23:37.179Z,1013.80
2018-12-30T03:24:37.204Z,1013.77
2018-12-30T03:25:37.230Z,1013.76
2018-12-30T03:26:37.256Z,1013.75
2018-12-30T03:27:37.281Z,1013.75
2018-12-30T03:28:37.308Z,1013.71
2018-12-30T03:29:37.332Z,1013.70
2018-12-30T03:30:37.357Z,1013.67
2018-12-30T03:31:37.384Z,1013.68
2018-12-30T03:32:37.409Z,1013.72
2018-12-30T03:33:37.434Z,1013.70
2018-12-30T03:34:37.460Z,1013.66
2018-12-30T03:35:37.483Z,1013.70
2018-12-30T03:36:37.509Z,1013.67
2018-12-30T03:37:37.534Z,1013.63
2018-12-30T03:38:37.558Z,1013.58
2018-12-30T03:39:37.583Z,1013.60
2018-12-30T03:40:37.608Z,1013.62
2018-12-30T03:41:37.635Z,1013.54
2018-12-30T03:42:37.661Z,1013.55
2018-12-30T03:43:37.686Z,1013.61
2018-12-30T03:44:37.710Z,1013.63
2018-12-30T03:45:37.734Z,1013.66
2018-12-30T03:46:37.760Z,1013.69
2018-12-30T03:47:37.792Z,1013.69
2018-12-30T03:48:37.810Z,1013.64
2018-12-30T03:49:37.850Z,1013.61
2018-12-30T03:50:37.881Z,1013.64
2018-12-30T03:51:37.890Z,1013.69
2018-12-30T03:52:37.912Z,1013.65
2018-12-30T03:53:37.938Z,1013.68
2018-12-30T03:54:37.969Z,1013.64
2018-12-30T03:55:37.989Z,1013.59
2018-12-30T03:56:38.016Z,1013.63
2018-12-30T03:57:38.041Z,1013.59
2018-12-30T03:58:38.065Z,1013.55
2018-12-30T03:59:38.091Z,1013.53
2018-12-30T04:00:38.116Z,1013.54
2018-12-30T04:01:38.142Z,1013.54
2018-12-30T04:02:38.167Z,1013.64
2018-12-30T04:03:38.193Z,1013.65
2018-12-30T04:04:38.215Z,1013.66
2018-12-30T04:05:38.243Z,1013.66
2018-12-30T04:06:38.271Z,1013.63
2018-12-30T04:07:38.293Z,1013.55
2018-12-30T04:08:38.367Z,1013.49
2018-12-30T04:09:38.351Z,1013.46
2018-12-30T04:10:38.371Z,1013.48
2018-12-30T04:11:38.397Z,1013.49
2018-12-30T04:12:38.421Z,1013.43
2018-12-30T04:13:38.445Z,1013.48
2018-12-30T04:14:38.471Z,1013.50
2018-12-30T04:15:38.496Z,1013.54
2018-12-30T04:16:38.521Z,1013.54
2018-12-30T04:17:38.549Z,1013.56
2018-12-30T04:18:38.574Z,1013.53
2018-12-30T04:19:38.598Z,1013.52
2018-12-30T04:20:38.623Z,1013.52
2018-12-30T04:21:38.650Z,1013.52
2018-12-30T04:22:38.679Z,1013.46
2018-12-30T04:23:38.699Z,1013.51
2018-12-30T04:24:38.725Z,1013.45
2018-12-30T04:25:38.755Z,1013.44
2018-12-30T04:26:38.775Z,1013.43
2018-12-30T04:27:38.810Z,1013.46
2018-12-30T04:28:38.864Z,1013.49
2018-12-30T04:29:38.850Z,1013.47
2018-12-30T04:30:38.877Z,1013.48
2018-12-30T04:31:38.903Z,1013.52
2018-12-30T04:32:38.926Z,1013.54
2018-12-30T04:33:38.958Z,1013.57
2018-12-30T04:34:38.978Z,1013.63
2018-12-30T04:35:39.004Z,1013.59
2018-12-30T04:36:39.028Z,1013.59
2018-12-30T04:37:39.055Z,1013.63
2018-12-30T04:38:39.080Z,1013.59
2018-12-30T04:39:39.117Z,1013.60
2018-12-30T04:40:39.129Z,1013.58
2018-12-30T04:41:39.155Z,1013.54
2018-12-30T04:42:39.183Z,1013.53
2018-12-30T04:43:39.215Z,1013.51
2018-12-30T04:44:39.249Z,1013.55
2018-12-30T04:45:39.255Z,1013.52
2018-12-30T04:46:39.290Z,1013.59
2018-12-30T04:47:39.309Z,1013.58
2018-12-30T04:48:39.333Z,1013.58
2018-12-30T04:49:39.358Z,1013.62
2018-12-30T04:50:40.059Z,1013.63
2018-12-30T04:51:39.412Z,1013.67
2018-12-30T04:52:39.434Z,1013.65
2018-12-30T04:53:39.461Z,1013.63
2018-12-30T04:54:39.486Z,1013.68
2018-12-30T04:55:39.513Z,1013.65
2018-12-30T04:56:39.535Z,1013.60
2018-12-30T04:57:39.561Z,1013.61
2018-12-30T04:58:39.587Z,1013.68
2018-12-30T04:59:39.613Z,1013.73
2018-12-30T05:00:39.637Z,1013.78
2018-12-30T05:01:39.662Z,1013.80
2018-12-30T05:02:39.689Z,1013.75
2018-12-30T05:03:39.718Z,1013.75
2018-12-30T05:04:39.738Z,1013.73
2018-12-30T05:05:39.765Z,1013.75
2018-12-30T05:06:39.791Z,1013.81
2018-12-30T05:07:39.817Z,1013.80
2018-12-30T05:08:39.840Z,1013.75
2018-12-30T05:09:39.865Z,1013.87
2018-12-30T05:10:39.899Z,1013.87
2018-12-30T05:11:39.916Z,1013.88
2018-12-30T05:12:39.942Z,1013.88
2018-12-30T05:13:39.968Z,1013.93
2018-12-30T05:14:39.993Z,1013.94
2018-12-30T05:15:40.019Z,1013.90
2018-12-30T05:16:40.043Z,1013.98
2018-12-30T05:17:40.069Z,1013.98
2018-12-30T05:18:40.094Z,1013.98
2018-12-30T05:19:40.119Z,1013.99
2018-12-30T05:20:40.143Z,1014.02
2018-12-30T05:21:40.170Z,1013.94
2018-12-30T05:22:40.195Z,1013.92
2018-12-30T05:23:40.222Z,1013.95
2018-12-30T05:24:40.245Z,1013.97
2018-12-30T05:25:40.271Z,1013.95
2018-12-30T05:26:40.295Z,1014.02
2018-12-30T05:27:40.323Z,1013.99
2018-12-30T05:28:40.346Z,1014.02
2018-12-30T05:29:40.373Z,1014.04
2018-12-30T05:30:40.398Z,1014.01
2018-12-30T05:31:40.426Z,1013.97
2018-12-30T05:32:40.448Z,1014.00
2018-12-30T05:33:40.475Z,1014.00
2018-12-30T05:34:40.499Z,1014.01
2018-12-30T05:35:40.525Z,1013.99
2018-12-30T05:36:40.549Z,1013.99
2018-12-30T05:37:40.573Z,1014.03
2018-12-30T05:38:40.600Z,1014.09
2018-12-30T05:39:40.626Z,1014.03
2018-12-30T05:40:40.652Z,1014.07
2018-12-30T05:41:40.679Z,1014.09
2018-12-30T05:42:40.707Z,1014.08
2018-12-30T05:43:40.729Z,1014.15
2018-12-30T05:44:40.754Z,1014.20
2018-12-30T05:45:40.778Z,1014.27
2018-12-30T05:46:40.804Z,1014.24
2018-12-30T05:47:40.830Z,1014.25
2018-12-30T05:48:40.856Z,1014.21
2018-12-30T05:49:40.880Z,1014.24
2018-12-30T05:50:40.905Z,1014.21
2018-12-30T05:51:40.933Z,1014.23
2018-12-30T05:52:42.099Z,1014.28
2018-12-30T05:53:40.982Z,1014.26
2018-12-30T05:54:41.010Z,1014.23
2018-12-30T05:55:41.032Z,1014.21
2018-12-30T05:56:41.057Z,1014.20
2018-12-30T05:57:41.083Z,1014.19
2018-12-30T05:58:41.107Z,1014.24
2018-12-30T05:59:41.135Z,1014.27
2018-12-30T06:00:41.159Z,1014.29
2018-12-30T06:01:41.184Z,1014.27
2018-12-30T06:02:41.212Z,1014.29
2018-12-30T06:03:41.243Z,1014.20
2018-12-30T06:04:41.261Z,1014.15
2018-12-30T06:05:41.287Z,1014.19
2018-12-30T06:06:41.314Z,1014.23
2018-12-30T06:07:41.342Z,1014.30
2018-12-30T06:08:41.366Z,1014.34
2018-12-30T06:09:41.388Z,1014.40
2018-12-30T06:10:41.415Z,1014.40
2018-12-30T06:11:41.441Z,1014.49
2018-12-30T06:12:41.465Z,1014.49
2018-12-30T06:13:41.491Z,1014.50
2018-12-30T06:14:41.517Z,1014.54
2018-12-30T06:15:41.544Z,1014.48
2018-12-30T06:16:41.568Z,1014.52
2018-12-30T06:17:41.592Z,1014.56
2018-12-30T06:18:41.617Z,1014.56
2018-12-30T06:19:41.644Z,1014.65
2018-12-30T06:20:41.668Z,1014.76
2018-12-30T06:21:41.693Z,1014.72
2018-12-30T06:22:49.313Z,1014.63
2018-12-30T06:23:41.745Z,1014.60
2018-12-30T06:24:41.770Z,1014.71
2018-12-30T06:25:41.802Z,1014.80
2018-12-30T06:26:41.821Z,1014.85
2018-12-30T06:27:41.848Z,1014.82
2018-12-30T06:28:41.872Z,1014.77
2018-12-30T06:29:41.899Z,1014.83
2018-12-30T06:30:41.924Z,1014.84
2018-12-30T06:31:41.949Z,1014.85
2018-12-30T06:32:41.974Z,1014.84
2018-12-30T06:33:42.000Z,1014.90
2018-12-30T06:34:42.025Z,1014.88
2018-12-30T06:35:42.052Z,1014.94
2018-12-30T06:36:42.076Z,1014.91
2018-12-30T06:37:42.105Z,1014.89
2018-12-30T06:38:42.129Z,1014.81
2018-12-30T06:39:42.155Z,1014.81
2018-12-30T06:40:42.180Z,1014.87
2018-12-30T06:41:42.203Z,1015.00
2018-12-30T06:42:42.230Z,1015.06
2018-12-30T06:43:42.256Z,1015.06
2018-12-30T06:44:42.281Z,1015.06
2018-12-30T06:45:42.307Z,1015.04
2018-12-30T06:46:42.333Z,1015.10
2018-12-30T06:47:42.366Z,1015.11
2018-12-30T06:48:42.383Z,1015.21
2018-12-30T06:49:42.410Z,1015.21
2018-12-30T06:50:42.435Z,1015.23
2018-12-30T06:51:42.462Z,1015.27
2018-12-30T06:52:42.486Z,1015.28
2018-12-30T06:53:42.511Z,1015.24
2018-12-30T06:54:42.536Z,1015.25
2018-12-30T06:55:42.562Z,1015.24
2018-12-30T06:56:42.586Z,1015.26
2018-12-30T06:57:42.613Z,1015.27
2018-12-30T06:58:42.641Z,1015.26
2018-12-30T06:59:42.665Z,1015.24
2018-12-30T07:00:42.693Z,1015.26
2018-12-30T07:01:42.716Z,1015.27
2018-12-30T07:02:42.743Z,1015.26
2018-12-30T07:03:42.769Z,1015.25
2018-12-30T07:04:42.795Z,1015.27
2018-12-30T07:05:42.818Z,1015.27
2018-12-30T07:06:42.846Z,1015.28
2018-12-30T07:07:42.868Z,1015.27
2018-12-30T07:08:42.895Z,1015.26
2018-12-30T07:09:42.919Z,1015.30
2018-12-30T07:10:42.946Z,1015.31
2018-12-30T07:11:42.971Z,1015.32
2018-12-30T07:12:42.996Z,1015.33
2018-12-30T07:13:43.030Z,1015.39
2018-12-30T07:14:43.049Z,1015.48
2018-12-30T07:15:43.075Z,1015.51
2018-12-30T07:16:43.099Z,1015.52
2018-12-30T07:17:43.125Z,1015.50
2018-12-30T07:18:43.149Z,1015.51
2018-12-30T07:19:43.175Z,1015.55
2018-12-30T07:20:43.200Z,1015.62
2018-12-30T07:21:43.226Z,1015.68
2018-12-30T07:22:43.251Z,1015.65
2018-12-30T07:23:43.277Z,1015.60
2018-12-30T07:24:43.305Z,1015.58
2018-12-30T07:25:43.328Z,1015.57
2018-12-30T07:26:43.406Z,1015.61
2018-12-30T07:27:43.380Z,1015.65
2018-12-30T07:28:43.404Z,1015.66
2018-12-30T07:29:43.430Z,1015.63
2018-12-30T07:30:43.455Z,1015.59
2018-12-30T07:31:43.481Z,1015.60
2018-12-30T07:32:43.507Z,1015.63
2018-12-30T07:33:43.530Z,1015.61
2018-12-30T07:34:43.558Z,1015.65
2018-12-30T07:35:43.583Z,1015.68
2018-12-30T07:36:43.610Z,1015.68
2018-12-30T07:37:43.634Z,1015.68
2018-12-30T07:38:43.658Z,1015.75
2018-12-30T07:39:43.685Z,1015.85
2018-12-30T07:40:43.711Z,1015.89
2018-12-30T07:41:43.736Z,1015.88
2018-12-30T07:42:43.762Z,1015.84
2018-12-30T07:43:43.788Z,1015.91
2018-12-30T07:44:43.820Z,1015.92
2018-12-30T07:45:43.838Z,1015.95
2018-12-30T07:46:43.864Z,1015.96
2018-12-30T07:47:43.889Z,1015.97
2018-12-30T07:48:43.958Z,1015.99
2018-12-30T07:49:43.942Z,1015.98
2018-12-30T07:50:43.964Z,1016.07
2018-12-30T07:51:43.993Z,1016.11
2018-12-30T07:52:44.016Z,1016.14
2018-12-30T07:53:44.043Z,1016.18
2018-12-30T07:54:44.069Z,1016.18
2018-12-30T07:55:44.093Z,1016.19
2018-12-30T07:56:44.120Z,1016.16
2018-12-30T07:57:44.146Z,1016.18
2018-12-30T07:58:44.171Z,1016.17
2018-12-30T07:59:44.198Z,1016.21
2018-12-30T08:00:44.222Z,1016.23
2018-12-30T08:01:44.248Z,1016.24
2018-12-30T08:02:44.273Z,1016.27
2018-12-30T08:03:44.298Z,1016.26
2018-12-30T08:04:44.375Z,1016.27
2018-12-30T08:05:44.349Z,1016.28
2018-12-30T08:06:44.378Z,1016.25
2018-12-30T08:07:44.405Z,1016.30
2018-12-30T08:08:44.429Z,1016.28
2018-12-30T08:09:44.453Z,1016.26
2018-12-30T08:10:44.489Z,1016.23
2018-12-30T08:11:44.504Z,1016.30
2018-12-30T08:12:44.528Z,1016.27
2018-12-30T08:13:44.555Z,1016.24
2018-12-30T08:14:44.580Z,1016.22
2018-12-30T08:15:44.605Z,1016.21
2018-12-30T08:16:44.632Z,1016.22
2018-12-30T08:17:44.657Z,1016.22
2018-12-30T08:18:44.702Z,1016.27
2018-12-30T08:19:44.709Z,1016.30
2018-12-30T08:20:44.737Z,1016.32
2018-12-30T08:21:44.763Z,1016.27
2018-12-30T08:22:44.787Z,1016.26
2018-12-30T08:23:44.814Z,1016.25
2018-12-30T08:24:44.837Z,1016.21
2018-12-30T08:25:44.865Z,1016.21
2018-12-30T08:26:44.888Z,1016.15
2018-12-30T08:27:44.915Z,1016.00
2018-12-30T08:28:45.450Z,1015.89
2018-12-30T08:29:44.966Z,1015.77
2018-12-30T08:30:44.991Z,1015.70
2018-12-30T08:31:45.019Z,1015.78
2018-12-30T08:32:45.043Z,1015.92
2018-12-30T08:33:45.068Z,1015.99
2018-12-30T08:34:45.095Z,1015.96
2018-12-30T08:35:45.121Z,1015.97
2018-12-30T08:36:45.146Z,1015.97
2018-12-30T08:37:45.245Z,1016.11
2018-12-30T08:38:45.197Z,1016.28
2018-12-30T08:39:45.225Z,1016.40
2018-12-30T08:40:45.253Z,1016.37
2018-12-30T08:41:45.274Z,1016.23
2018-12-30T08:42:45.299Z,1016.12
2018-12-30T08:43:45.326Z,1016.00
2018-12-30T08:44:45.358Z,1015.96
2018-12-30T08:45:45.377Z,1015.93
2018-12-30T08:46:45.406Z,1015.99
2018-12-30T08:47:45.434Z,1015.99
2018-12-30T08:48:45.458Z,1015.99
2018-12-30T08:49:45.481Z,1016.00
2018-12-30T08:50:45.507Z,1015.94
2018-12-30T08:51:45.533Z,1015.92
2018-12-30T08:52:45.558Z,1015.91
2018-12-30T08:53:45.584Z,1015.89
2018-12-30T08:54:45.610Z,1015.87
2018-12-30T08:55:45.636Z,1015.82
2018-12-30T08:56:45.661Z,1015.79
2018-12-30T08:57:45.688Z,1015.79
2018-12-30T08:58:45.713Z,1015.77
2018-12-30T08:59:45.740Z,1015.73
2018-12-30T09:00:45.765Z,1015.70
2018-12-30T09:01:45.792Z,1015.70
2018-12-30T09:02:45.818Z,1015.73
2018-12-30T09:03:45.845Z,1015.73
2018-12-30T09:04:45.869Z,1015.78
2018-12-30T09:05:45.900Z,1015.80
2018-12-30T09:06:45.923Z,1015.84
2018-12-30T09:07:45.949Z,1015.84
2018-12-30T09:08:46.061Z,1015.93
2018-12-30T09:09:46.000Z,1015.94
2018-12-30T09:10:46.028Z,1016.03
2018-12-30T09:11:46.054Z,1016.11
2018-12-30T09:12:46.081Z,1016.14
2018-12-30T09:13:46.105Z,1016.19
2018-12-30T09:14:46.132Z,1016.26
2018-12-30T09:15:46.160Z,1016.28
2018-12-30T09:16:46.184Z,1016.33
2018-12-30T09:17:46.210Z,1016.37
2018-12-30T09:18:46.237Z,1016.27
2018-12-30T09:19:46.270Z,1016.23
2018-12-30T09:20:46.289Z,1016.19
2018-12-30T09:21:46.316Z,1016.25
2018-12-30T09:22:46.342Z,1016.37
2018-12-30T09:23:46.375Z,1016.58
2018-12-30T09:24:46.405Z,1016.68
2018-12-30T09:25:46.422Z,1016.66
2018-12-30T09:26:46.449Z,1016.58
2018-12-30T09:27:46.476Z,1016.44
2018-12-30T09:28:46.501Z,1016.32
2018-12-30T09:29:46.526Z,1016.08
2018-12-30T09:30:46.555Z,1016.03
2018-12-30T09:31:46.580Z,1016.05
2018-12-30T09:32:46.606Z,1016.17
2018-12-30T09:33:46.632Z,1016.43
2018-12-30T09:34:46.659Z,1016.46
2018-12-30T09:35:46.685Z,1016.36
2018-12-30T09:36:46.714Z,1016.20
2018-12-30T09:37:46.739Z,1016.27
2018-12-30T09:38:46.766Z,1016.47
2018-12-30T09:39:46.794Z,1016.57
2018-12-30T09:40:46.821Z,1016.67
2018-12-30T09:41:46.848Z,1016.66
2018-12-30T09:42:46.872Z,1016.63
2018-12-30T09:43:46.899Z,1016.58
2018-12-30T09:44:46.925Z,1016.51
2018-12-30T09:45:46.952Z,1016.48
2018-12-30T09:46:46.979Z,1016.49
2018-12-30T09:47:47.006Z,1016.49
2018-12-30T09:48:47.032Z,1016.47
2018-12-30T09:49:47.059Z,1016.47
2018-12-30T09:50:47.088Z,1016.49
2018-12-30T09:51:47.113Z,1016.51
2018-12-30T09:52:47.139Z,1016.48
2018-12-30T09:53:47.166Z,1016.50
2018-12-30T09:54:47.193Z,1016.48
2018-12-30T09:55:47.223Z,1016.42
2018-12-30T09:56:47.248Z,1016.45
2018-12-30T09:57:47.274Z,1016.42
2018-12-30T09:58:47.303Z,1016.48
2018-12-30T09:59:47.328Z,1016.50
2018-12-30T10:00:47.608Z,1016.57
2018-12-30T10:01:47.382Z,1016.56
2018-12-30T10:02:47.408Z,1016.57
2018-12-30T10:03:47.437Z,1016.52
2018-12-30T10:04:47.463Z,1016.59
2018-12-30T10:05:47.490Z,1016.60
2018-12-30T10:06:47.516Z,1016.62
2018-12-30T10:07:47.546Z,1016.61
2018-12-30T10:08:47.569Z,1016.59
2018-12-30T10:09:47.597Z,1016.56
2018-12-30T10:10:47.626Z,1016.60
2018-12-30T10:11:47.652Z,1016.59
2018-12-30T10:12:47.679Z,1016.63
2018-12-30T10:13:47.711Z,1016.62
2018-12-30T10:14:47.732Z,1016.61
2018-12-30T10:15:47.762Z,1016.59
2018-12-30T10:16:47.857Z,1016.58
2018-12-30T10:17:47.813Z,1016.52
2018-12-30T10:18:47.841Z,1016.53
2018-12-30T10:19:47.871Z,1016.54
2018-12-30T10:20:47.894Z,1016.50
2018-12-30T10:21:47.923Z,1016.49
2018-12-30T10:22:47.950Z,1016.53
2018-12-30T10:23:52.974Z,1016.47
2018-12-30T10:24:48.002Z,1016.46
2018-12-30T10:25:48.030Z,1016.44
2018-12-30T10:26:48.057Z,1016.45
2018-12-30T10:27:48.084Z,1016.45
2018-12-30T10:28:48.111Z,1016.45
2018-12-30T10:29:48.139Z,1016.44
2018-12-30T10:30:48.165Z,1016.47
2018-12-30T10:31:48.197Z,1016.45
2018-12-30T10:32:48.218Z,1016.46
2018-12-30T10:33:48.245Z,1016.52
2018-12-30T10:34:48.273Z,1016.57
2018-12-30T10:35:48.363Z,1016.57
2018-12-30T10:36:48.327Z,1016.58
2018-12-30T10:37:48.356Z,1016.58
2018-12-30T10:38:48.381Z,1016.57
2018-12-30T10:39:48.408Z,1016.52
2018-12-30T10:40:48.434Z,1016.54
2018-12-30T10:41:48.462Z,1016.57
2018-12-30T10:42:48.489Z,1016.57
2018-12-30T10:43:48.517Z,1016.55
2018-12-30T10:44:48.545Z,1016.58
2018-12-30T10:45:48.570Z,1016.54
2018-12-30T10:46:48.597Z,1016.51
2018-12-30T10:47:48.625Z,1016.55
2018-12-30T10:48:48.651Z,1016.48
2018-12-30T10:49:48.679Z,1016.49
2018-12-30T10:50:48.707Z,1016.45
2018-12-30T10:51:48.733Z,1016.41
2018-12-30T10:52:48.759Z,1016.32
2018-12-30T10:53:48.786Z,1016.40
2018-12-30T10:54:48.815Z,1016.35
2018-12-30T10:55:48.842Z,1016.34
2018-12-30T10:56:48.870Z,1016.34
2018-12-30T10:57:48.902Z,1016.33
2018-12-30T10:58:48.924Z,1016.36
2018-12-30T10:59:48.950Z,1016.38
2018-12-30T11:00:48.977Z,1016.36
2018-12-30T11:01:49.007Z,1016.41
2018-12-30T11:02:49.031Z,1016.40
2018-12-30T11:03:49.059Z,1016.41
2018-12-30T11:04:49.086Z,1016.43
2018-12-30T11:05:49.112Z,1016.43
2018-12-30T11:06:49.140Z,1016.45
2018-12-30T11:07:49.169Z,1016.42
2018-12-30T11:08:49.194Z,1016.42
2018-12-30T11:09:49.222Z,1016.40
2018-12-30T11:10:49.249Z,1016.36
2018-12-30T11:11:49.279Z,1016.33
2018-12-30T11:12:49.303Z,1016.27
2018-12-30T11:13:49.330Z,1016.26
2018-12-30T11:14:49.357Z,1016.20
2018-12-30T11:15:49.386Z,1016.13
2018-12-30T11:16:49.412Z,1016.07
2018-12-30T11:17:49.440Z,1016.04
2018-12-30T11:18:49.466Z,1016.03
2018-12-30T11:19:49.496Z,1015.99
2018-12-30T11:20:49.522Z,1015.97
2018-12-30T11:21:49.548Z,1016.00
2018-12-30T11:22:49.576Z,1016.02
2018-12-30T11:23:49.604Z,1016.04
2018-12-30T11:24:49.628Z,1016.06
2018-12-30T11:25:49.657Z,1016.00
2018-12-30T11:26:49.683Z,1015.98
2018-12-30T11:27:49.713Z,1015.98
2018-12-30T11:28:49.739Z,1015.99
2018-12-30T11:29:49.766Z,1015.94
2018-12-30T11:30:49.794Z,1015.90
2018-12-30T11:31:49.822Z,1015.86
2018-12-30T11:32:49.848Z,1015.88
2018-12-30T11:33:49.878Z,1015.82
2018-12-30T11:34:49.905Z,1015.84
2018-12-30T11:35:49.931Z,1015.81
2018-12-30T11:36:49.960Z,1015.82
2018-12-30T11:37:49.984Z,1015.88
2018-12-30T11:38:50.013Z,1015.90
2018-12-30T11:39:50.041Z,1015.89
2018-12-30T11:40:50.067Z,1015.93
2018-12-30T11:41:50.095Z,1015.95
2018-12-30T11:42:50.123Z,1015.92
2018-12-30T11:43:50.150Z,1015.90
2018-12-30T11:44:50.177Z,1015.86
2018-12-30T11:45:50.205Z,1015.81
2018-12-30T11:46:50.233Z,1015.79
2018-12-30T11:47:50.262Z,1015.75
2018-12-30T11:48:50.288Z,1015.69
2018-12-30T11:49:50.317Z,1015.68
2018-12-30T11:50:50.427Z,1015.69
2018-12-30T11:51:50.371Z,1015.74
2018-12-30T11:52:50.398Z,1015.75
2018-12-30T11:53:50.425Z,1015.77
2018-12-30T11:54:50.458Z,1015.75
2018-12-30T11:55:50.479Z,1015.76
2018-12-30T11:56:50.509Z,1015.73
2018-12-30T11:57:50.536Z,1015.70
2018-12-30T11:58:50.563Z,1015.72
2018-12-30T11:59:50.592Z,1015.67
2018-12-30T12:00:50.619Z,1015.65
2018-12-30T12:01:50.646Z,1015.65
2018-12-30T12:02:50.675Z,1015.67
2018-12-30T12:03:50.706Z,1015.67
2018-12-30T12:04:50.730Z,1015.70
2018-12-30T12:05:50.757Z,1015.68